This is the latest recevied weather packets stored in our database for station/object CA3DPI. If no packets are shown the sender has not sent any weather packets the latest 10 day(s).
| Time | Temp. | Humidity | Pressure | Rain* | Wind** | Luminosity | Snow |
|---|---|---|---|---|---|---|---|
| 1777593413 | 15.56° C | 55% | 1018.1 hPa | - | - | - | - |
| 1777592813 | 15.56° C | 54% | 1017.9 hPa | - | - | - | - |
| 1777592213 | 15.56° C | 55% | 1017.7 hPa | - | - | - | - |
| 1777591612 | 15.56° C | 59% | 1017.6 hPa | - | - | - | - |
| 1777591012 | 16.11° C | 55% | 1017.4 hPa | - | - | - | - |
| 1777590412 | 16.11° C | 57% | 1017.3 hPa | - | - | - | - |
| 1777589812 | 16.67° C | 55% | 1017.1 hPa | - | - | - | - |
| 1777589212 | 17.22° C | 51% | 1017 hPa | - | - | - | - |
| 1777588612 | 17.78° C | 51% | 1016.7 hPa | - | - | - | - |
| 1777588075 | 18.89° C | 51% | 1016.5 hPa | - | - | - | - |
| 1777588011 | 18.89° C | 51% | 1016.5 hPa | - | - | - | - |
| 1777587411 | 19.44° C | 50% | 1016.4 hPa | - | - | - | - |
| 1777586811 | 20.56° C | 51% | 1016.3 hPa | - | - | - | - |
| 1777586211 | 21.67° C | 47% | 1016.1 hPa | - | - | - | - |
| 1777585611 | 22.78° C | 44% | 1014.8 hPa | - | - | - | - |
| 1777585011 | 24.44° C | 42% | 1015.7 hPa | - | - | - | - |
| 1777584409 | 25.56° C | 39% | 1015.6 hPa | - | - | - | - |
| 1777583809 | 26.67° C | 39% | 1015.4 hPa | - | - | - | - |
| 1777583209 | 27.78° C | 38% | 1015.1 hPa | - | - | - | - |
| 1777582608 | 27.78° C | 38% | 1015 hPa | - | - | - | - |
| 1777582008 | 26.67° C | 40% | 1015 hPa | - | - | - | - |
| 1777579517 | 31.67° C | 32% | 1014.8 hPa | - | - | - | - |
| 1777578917 | 32.22° C | 32% | 1014.7 hPa | - | - | - | - |
| 1777578316 | 32.78° C | 33% | 1014.7 hPa | - | - | - | - |
| 1777577716 | 32.78° C | 30% | 1014.7 hPa | - | - | - | - |
* Rain since midnight (hover to see other rain measurements)
** Current wind speed in m/s (hover to see current wind gust speed)